sensor_id;sensor_type;location;lat;lon;timestamp;P1;durP1;ratioP1;P2;durP2;ratioP2
4569;SDS011;2297;51.442;6.996;2024-03-23T00:53:06;17.38;;;5.07;;
4569;SDS011;2297;51.442;6.996;2024-03-23T00:55:33;19.65;;;4.70;;
4569;SDS011;2297;51.442;6.996;2024-03-23T00:57:59;17.48;;;4.30;;
4569;SDS011;2297;51.442;6.996;2024-03-23T01:00:26;18.13;;;4.57;;
4569;SDS011;2297;51.442;6.996;2024-03-23T01:02:51;15.05;;;4.10;;
4569;SDS011;2297;51.442;6.996;2024-03-23T01:05:18;19.10;;;5.50;;
4569;SDS011;2297;51.442;6.996;2024-03-23T01:07:44;19.48;;;4.75;;
4569;SDS011;2297;51.442;6.996;2024-03-23T01:10:12;13.32;;;4.50;;
4569;SDS011;2297;51.442;6.996;2024-03-23T01:12:37;16.75;;;4.53;;
4569;SDS011;2297;51.442;6.996;2024-03-23T01:15:04;23.10;;;5.45;;
4569;SDS011;2297;51.442;6.996;2024-03-23T01:17:31;15.70;;;4.95;;
4569;SDS011;2297;51.442;6.996;2024-03-23T01:19:58;16.27;;;4.65;;
4569;SDS011;2297;51.442;6.996;2024-03-23T01:22:23;14.80;;;3.97;;
4569;SDS011;2297;51.442;6.996;2024-03-23T01:24:50;11.75;;;3.80;;
4569;SDS011;2297;51.442;6.996;2024-03-23T01:27:17;15.02;;;3.35;;
4569;SDS011;2297;51.442;6.996;2024-03-23T01:29:44;11.48;;;3.08;;
4569;SDS011;2297;51.442;6.996;2024-03-23T01:32:09;10.82;;;2.75;;
4569;SDS011;2297;51.442;6.996;2024-03-23T01:34:36;11.45;;;2.70;;
4569;SDS011;2297;51.442;6.996;2024-03-23T01:37:02;9.88;;;2.65;;
4569;SDS011;2297;51.442;6.996;2024-03-23T01:39:29;9.95;;;2.85;;
4569;SDS011;2297;51.442;6.996;2024-03-23T01:41:55;9.73;;;2.53;;
4569;SDS011;2297;51.442;6.996;2024-03-23T01:44:23;9.70;;;2.78;;
4569;SDS011;2297;51.442;6.996;2024-03-23T01:46:49;9.38;;;2.42;;
4569;SDS011;2297;51.442;6.996;2024-03-23T01:49:16;6.75;;;2.13;;
4569;SDS011;2297;51.442;6.996;2024-03-23T01:51:42;6.45;;;2.20;;
4569;SDS011;2297;51.442;6.996;2024-03-23T01:54:10;7.95;;;2.00;;
4569;SDS011;2297;51.442;6.996;2024-03-23T01:56:36;12.25;;;2.55;;
4569;SDS011;2297;51.442;6.996;2024-03-23T01:59:03;8.23;;;2.30;;
4569;SDS011;2297;51.442;6.996;2024-03-23T02:01:30;9.35;;;2.38;;
4569;SDS011;2297;51.442;6.996;2024-03-23T02:03:56;7.85;;;2.10;;
4569;SDS011;2297;51.442;6.996;2024-03-23T02:06:22;8.75;;;2.88;;
4569;SDS011;2297;51.442;6.996;2024-03-23T02:08:50;7.38;;;2.67;;
4569;SDS011;2297;51.442;6.996;2024-03-23T02:11:16;6.75;;;1.90;;
4569;SDS011;2297;51.442;6.996;2024-03-23T02:13:42;8.68;;;2.15;;
4569;SDS011;2297;51.442;6.996;2024-03-23T02:16:08;5.95;;;1.65;;
4569;SDS011;2297;51.442;6.996;2024-03-23T02:18:36;5.30;;;2.05;;
4569;SDS011;2297;51.442;6.996;2024-03-23T02:21:02;5.75;;;1.80;;
4569;SDS011;2297;51.442;6.996;2024-03-23T02:23:31;9.10;;;2.10;;
4569;SDS011;2297;51.442;6.996;2024-03-23T02:25:56;8.45;;;2.20;;
4569;SDS011;2297;51.442;6.996;2024-03-23T02:28:23;6.97;;;2.20;;
4569;SDS011;2297;51.442;6.996;2024-03-23T02:30:48;5.25;;;1.83;;
4569;SDS011;2297;51.442;6.996;2024-03-23T02:33:15;6.85;;;1.85;;
4569;SDS011;2297;51.442;6.996;2024-03-23T02:35:41;8.13;;;2.17;;
4569;SDS011;2297;51.442;6.996;2024-03-23T02:38:08;9.70;;;2.25;;
4569;SDS011;2297;51.442;6.996;2024-03-23T02:40:35;8.00;;;2.10;;
4569;SDS011;2297;51.442;6.996;2024-03-23T02:43:02;9.98;;;2.38;;
4569;SDS011;2297;51.442;6.996;2024-03-23T02:45:28;8.15;;;2.20;;
4569;SDS011;2297;51.442;6.996;2024-03-23T02:47:55;6.78;;;1.80;;
4569;SDS011;2297;51.442;6.996;2024-03-23T02:50:21;7.00;;;2.03;;
4569;SDS011;2297;51.442;6.996;2024-03-23T02:52:48;6.72;;;2.28;;
4569;SDS011;2297;51.442;6.996;2024-03-23T02:55:14;5.32;;;1.75;;
4569;SDS011;2297;51.442;6.996;2024-03-23T02:57:42;9.05;;;1.80;;
4569;SDS011;2297;51.442;6.996;2024-03-23T03:00:08;5.95;;;2.00;;
4569;SDS011;2297;51.442;6.996;2024-03-23T03:02:36;7.93;;;2.20;;
4569;SDS011;2297;51.442;6.996;2024-03-23T03:05:02;6.35;;;2.10;;
4569;SDS011;2297;51.442;6.996;2024-03-23T03:07:30;6.82;;;2.25;;
4569;SDS011;2297;51.442;6.996;2024-03-23T03:09:55;7.45;;;2.13;;
4569;SDS011;2297;51.442;6.996;2024-03-23T03:12:22;9.68;;;2.20;;
4569;SDS011;2297;51.442;6.996;2024-03-23T03:14:49;12.73;;;2.38;;
4569;SDS011;2297;51.442;6.996;2024-03-23T03:17:16;9.45;;;2.15;;
4569;SDS011;2297;51.442;6.996;2024-03-23T03:19:41;4.90;;;2.00;;
4569;SDS011;2297;51.442;6.996;2024-03-23T03:22:08;9.25;;;2.13;;
4569;SDS011;2297;51.442;6.996;2024-03-23T03:24:34;8.13;;;2.20;;
4569;SDS011;2297;51.442;6.996;2024-03-23T03:27:00;8.57;;;2.03;;
4569;SDS011;2297;51.442;6.996;2024-03-23T03:29:26;7.80;;;2.30;;
4569;SDS011;2297;51.442;6.996;2024-03-23T03:32:00;11.93;;;2.30;;
4569;SDS011;2297;51.442;6.996;2024-03-23T03:34:26;16.15;;;2.70;;
4569;SDS011;2297;51.442;6.996;2024-03-23T03:36:52;7.85;;;1.85;;
4569;SDS011;2297;51.442;6.996;2024-03-23T03:39:18;6.90;;;2.08;;
4569;SDS011;2297;51.442;6.996;2024-03-23T03:41:44;4.82;;;2.08;;
4569;SDS011;2297;51.442;6.996;2024-03-23T03:44:10;9.25;;;2.10;;
4569;SDS011;2297;51.442;6.996;2024-03-23T03:46:37;7.93;;;2.08;;
4569;SDS011;2297;51.442;6.996;2024-03-23T03:49:04;6.68;;;2.25;;
4569;SDS011;2297;51.442;6.996;2024-03-23T03:51:30;9.82;;;2.40;;
4569;SDS011;2297;51.442;6.996;2024-03-23T03:53:56;5.07;;;2.33;;
4569;SDS011;2297;51.442;6.996;2024-03-23T03:56:23;10.50;;;2.95;;
4569;SDS011;2297;51.442;6.996;2024-03-23T03:58:49;10.20;;;2.88;;
4569;SDS011;2297;51.442;6.996;2024-03-23T04:01:16;10.32;;;3.20;;
4569;SDS011;2297;51.442;6.996;2024-03-23T04:03:42;12.38;;;4.32;;
4569;SDS011;2297;51.442;6.996;2024-03-23T04:06:10;8.50;;;3.35;;
4569;SDS011;2297;51.442;6.996;2024-03-23T04:08:36;10.88;;;3.15;;
4569;SDS011;2297;51.442;6.996;2024-03-23T04:11:03;15.57;;;3.22;;
4569;SDS011;2297;51.442;6.996;2024-03-23T04:13:29;11.48;;;2.92;;
4569;SDS011;2297;51.442;6.996;2024-03-23T04:15:55;9.48;;;2.95;;
4569;SDS011;2297;51.442;6.996;2024-03-23T04:18:21;14.73;;;3.22;;
4569;SDS011;2297;51.442;6.996;2024-03-23T04:20:48;12.50;;;3.53;;
4569;SDS011;2297;51.442;6.996;2024-03-23T04:23:15;8.27;;;3.10;;
4569;SDS011;2297;51.442;6.996;2024-03-23T04:25:41;12.45;;;3.05;;
4569;SDS011;2297;51.442;6.996;2024-03-23T04:28:07;9.70;;;2.90;;
4569;SDS011;2297;51.442;6.996;2024-03-23T04:30:34;11.98;;;3.92;;
4569;SDS011;2297;51.442;6.996;2024-03-23T04:32:59;8.55;;;2.60;;
4569;SDS011;2297;51.442;6.996;2024-03-23T04:35:28;8.32;;;2.88;;
4569;SDS011;2297;51.442;6.996;2024-03-23T04:37:53;7.03;;;3.10;;
4569;SDS011;2297;51.442;6.996;2024-03-23T04:40:34;9.70;;;2.40;;
4569;SDS011;2297;51.442;6.996;2024-03-23T04:43:00;11.45;;;2.53;;
4569;SDS011;2297;51.442;6.996;2024-03-23T04:45:27;9.57;;;2.45;;
4569;SDS011;2297;51.442;6.996;2024-03-23T04:47:53;8.23;;;2.50;;
4569;SDS011;2297;51.442;6.996;2024-03-23T04:50:20;11.95;;;2.92;;
4569;SDS011;2297;51.442;6.996;2024-03-23T04:52:46;5.93;;;2.50;;
4569;SDS011;2297;51.442;6.996;2024-03-23T04:55:13;10.45;;;2.60;;
4569;SDS011;2297;51.442;6.996;2024-03-23T04:57:40;5.75;;;2.88;;
4569;SDS011;2297;51.442;6.996;2024-03-23T05:00:07;8.75;;;3.38;;
4569;SDS011;2297;51.442;6.996;2024-03-23T05:02:42;14.57;;;3.30;;
4569;SDS011;2297;51.442;6.996;2024-03-23T05:05:09;12.45;;;4.68;;
4569;SDS011;2297;51.442;6.996;2024-03-23T05:07:34;10.93;;;3.88;;
4569;SDS011;2297;51.442;6.996;2024-03-23T05:10:01;13.70;;;4.50;;
4569;SDS011;2297;51.442;6.996;2024-03-23T05:12:27;15.00;;;5.00;;
4569;SDS011;2297;51.442;6.996;2024-03-23T05:14:55;17.50;;;6.50;;
4569;SDS011;2297;51.442;6.996;2024-03-23T05:17:20;12.30;;;4.80;;
4569;SDS011;2297;51.442;6.996;2024-03-23T05:19:47;16.33;;;5.57;;
4569;SDS011;2297;51.442;6.996;2024-03-23T05:22:12;14.13;;;5.40;;
4569;SDS011;2297;51.442;6.996;2024-03-23T05:24:39;13.88;;;5.75;;
4569;SDS011;2297;51.442;6.996;2024-03-23T05:27:05;15.73;;;5.97;;
4569;SDS011;2297;51.442;6.996;2024-03-23T05:29:31;19.52;;;6.13;;
4569;SDS011;2297;51.442;6.996;2024-03-23T05:31:58;11.48;;;5.80;;
4569;SDS011;2297;51.442;6.996;2024-03-23T05:34:25;12.85;;;5.28;;
4569;SDS011;2297;51.442;6.996;2024-03-23T05:36:50;15.63;;;5.95;;
4569;SDS011;2297;51.442;6.996;2024-03-23T05:39:17;15.10;;;6.22;;
4569;SDS011;2297;51.442;6.996;2024-03-23T05:41:43;13.38;;;5.25;;
4569;SDS011;2297;51.442;6.996;2024-03-23T05:44:10;15.07;;;5.85;;
4569;SDS011;2297;51.442;6.996;2024-03-23T05:46:36;16.00;;;5.75;;
4569;SDS011;2297;51.442;6.996;2024-03-23T05:49:04;15.27;;;5.25;;
4569;SDS011;2297;51.442;6.996;2024-03-23T05:51:30;17.33;;;5.50;;
4569;SDS011;2297;51.442;6.996;2024-03-23T05:53:56;14.52;;;5.50;;
4569;SDS011;2297;51.442;6.996;2024-03-23T05:56:22;14.02;;;5.57;;
4569;SDS011;2297;51.442;6.996;2024-03-23T05:58:49;14.23;;;4.80;;
4569;SDS011;2297;51.442;6.996;2024-03-23T06:01:15;12.35;;;4.82;;
4569;SDS011;2297;51.442;6.996;2024-03-23T06:03:41;13.90;;;5.45;;
4569;SDS011;2297;51.442;6.996;2024-03-23T06:06:10;11.57;;;5.68;;
4569;SDS011;2297;51.442;6.996;2024-03-23T06:08:37;15.40;;;4.70;;
4569;SDS011;2297;51.442;6.996;2024-03-23T06:11:03;14.20;;;5.30;;
4569;SDS011;2297;51.442;6.996;2024-03-23T06:13:31;16.83;;;5.25;;
4569;SDS011;2297;51.442;6.996;2024-03-23T06:15:56;14.35;;;5.25;;
4569;SDS011;2297;51.442;6.996;2024-03-23T06:18:23;17.73;;;6.25;;
4569;SDS011;2297;51.442;6.996;2024-03-23T06:20:49;14.63;;;5.78;;
4569;SDS011;2297;51.442;6.996;2024-03-23T06:23:17;14.32;;;5.28;;
4569;SDS011;2297;51.442;6.996;2024-03-23T06:25:45;19.23;;;5.95;;
4569;SDS011;2297;51.442;6.996;2024-03-23T06:28:11;18.60;;;6.82;;
4569;SDS011;2297;51.442;6.996;2024-03-23T06:30:37;19.38;;;5.97;;
4569;SDS011;2297;51.442;6.996;2024-03-23T06:33:04;16.33;;;7.40;;
4569;SDS011;2297;51.442;6.996;2024-03-23T06:35:30;16.90;;;7.32;;
4569;SDS011;2297;51.442;6.996;2024-03-23T06:37:57;14.30;;;6.65;;
4569;SDS011;2297;51.442;6.996;2024-03-23T06:40:24;13.90;;;6.97;;
4569;SDS011;2297;51.442;6.996;2024-03-23T06:42:51;19.27;;;7.93;;
4569;SDS011;2297;51.442;6.996;2024-03-23T06:45:16;17.83;;;7.57;;
4569;SDS011;2297;51.442;6.996;2024-03-23T06:47:48;17.55;;;8.27;;
4569;SDS011;2297;51.442;6.996;2024-03-23T06:50:13;19.48;;;9.27;;
4569;SDS011;2297;51.442;6.996;2024-03-23T06:52:40;16.75;;;9.05;;
4569;SDS011;2297;51.442;6.996;2024-03-23T06:55:06;20.42;;;8.90;;
4569;SDS011;2297;51.442;6.996;2024-03-23T06:57:34;17.67;;;9.05;;
4569;SDS011;2297;51.442;6.996;2024-03-23T07:00:00;20.77;;;9.70;;
4569;SDS011;2297;51.442;6.996;2024-03-23T07:02:26;23.50;;;8.48;;
4569;SDS011;2297;51.442;6.996;2024-03-23T07:04:52;18.17;;;8.70;;
4569;SDS011;2297;51.442;6.996;2024-03-23T07:07:19;23.35;;;8.77;;
4569;SDS011;2297;51.442;6.996;2024-03-23T07:09:44;16.85;;;7.88;;
4569;SDS011;2297;51.442;6.996;2024-03-23T07:12:11;23.05;;;8.57;;
4569;SDS011;2297;51.442;6.996;2024-03-23T07:14:38;22.25;;;8.52;;
4569;SDS011;2297;51.442;6.996;2024-03-23T07:17:04;19.00;;;7.97;;
4569;SDS011;2297;51.442;6.996;2024-03-23T07:19:30;19.10;;;8.35;;
4569;SDS011;2297;51.442;6.996;2024-03-23T07:21:56;22.38;;;8.40;;
4569;SDS011;2297;51.442;6.996;2024-03-23T07:24:22;19.63;;;8.27;;
4569;SDS011;2297;51.442;6.996;2024-03-23T07:26:49;19.77;;;8.40;;
4569;SDS011;2297;51.442;6.996;2024-03-23T07:29:16;19.85;;;8.27;;
4569;SDS011;2297;51.442;6.996;2024-03-23T07:31:44;21.20;;;8.02;;
4569;SDS011;2297;51.442;6.996;2024-03-23T07:34:09;19.67;;;8.13;;
4569;SDS011;2297;51.442;6.996;2024-03-23T07:36:36;20.77;;;7.80;;
4569;SDS011;2297;51.442;6.996;2024-03-23T07:39:01;22.88;;;8.43;;
4569;SDS011;2297;51.442;6.996;2024-03-23T07:41:29;17.88;;;7.47;;
4569;SDS011;2297;51.442;6.996;2024-03-23T07:43:55;23.55;;;7.65;;
4569;SDS011;2297;51.442;6.996;2024-03-23T07:46:22;19.50;;;7.53;;
4569;SDS011;2297;51.442;6.996;2024-03-23T07:48:49;14.48;;;6.80;;
4569;SDS011;2297;51.442;6.996;2024-03-23T07:51:16;17.75;;;7.18;;
4569;SDS011;2297;51.442;6.996;2024-03-23T07:53:44;26.45;;;6.97;;
4569;SDS011;2297;51.442;6.996;2024-03-23T07:59:00;25.20;;;7.15;;
4569;SDS011;2297;51.442;6.996;2024-03-23T08:01:28;19.75;;;6.50;;
4569;SDS011;2297;51.442;6.996;2024-03-23T08:03:55;21.17;;;6.05;;
4569;SDS011;2297;51.442;6.996;2024-03-23T08:06:22;22.55;;;6.03;;
4569;SDS011;2297;51.442;6.996;2024-03-23T08:08:49;15.88;;;6.13;;
4569;SDS011;2297;51.442;6.996;2024-03-23T08:11:24;19.92;;;6.35;;
4569;SDS011;2297;51.442;6.996;2024-03-23T08:13:50;17.50;;;6.78;;
4569;SDS011;2297;51.442;6.996;2024-03-23T08:16:16;13.00;;;5.30;;
4569;SDS011;2297;51.442;6.996;2024-03-23T08:18:42;15.70;;;5.80;;
4569;SDS011;2297;51.442;6.996;2024-03-23T08:21:10;19.52;;;5.60;;
4569;SDS011;2297;51.442;6.996;2024-03-23T08:23:36;14.93;;;5.45;;
4569;SDS011;2297;51.442;6.996;2024-03-23T08:26:03;18.33;;;6.05;;
4569;SDS011;2297;51.442;6.996;2024-03-23T08:28:30;17.02;;;5.43;;
4569;SDS011;2297;51.442;6.996;2024-03-23T08:30:56;13.18;;;4.97;;
4569;SDS011;2297;51.442;6.996;2024-03-23T08:33:22;16.48;;;4.97;;
4569;SDS011;2297;51.442;6.996;2024-03-23T08:35:53;16.45;;;5.32;;
4569;SDS011;2297;51.442;6.996;2024-03-23T08:38:21;13.75;;;5.05;;
4569;SDS011;2297;51.442;6.996;2024-03-23T08:40:48;11.68;;;4.45;;
4569;SDS011;2297;51.442;6.996;2024-03-23T08:43:21;10.40;;;4.38;;
4569;SDS011;2297;51.442;6.996;2024-03-23T08:45:47;10.27;;;4.60;;
4569;SDS011;2297;51.442;6.996;2024-03-23T08:48:13;14.65;;;5.70;;
4569;SDS011;2297;51.442;6.996;2024-03-23T08:50:40;13.48;;;5.25;;
4569;SDS011;2297;51.442;6.996;2024-03-23T08:53:06;10.13;;;4.28;;
4569;SDS011;2297;51.442;6.996;2024-03-23T08:55:33;10.57;;;4.13;;
4569;SDS011;2297;51.442;6.996;2024-03-23T08:58:00;13.90;;;4.45;;
4569;SDS011;2297;51.442;6.996;2024-03-23T09:00:26;10.82;;;4.18;;
4569;SDS011;2297;51.442;6.996;2024-03-23T09:02:52;12.48;;;3.88;;
4569;SDS011;2297;51.442;6.996;2024-03-23T09:05:18;7.80;;;3.55;;
4569;SDS011;2297;51.442;6.996;2024-03-23T09:07:45;15.82;;;3.50;;
4569;SDS011;2297;51.442;6.996;2024-03-23T09:10:11;8.50;;;2.80;;
4569;SDS011;2297;51.442;6.996;2024-03-23T09:12:38;6.50;;;2.25;;
4569;SDS011;2297;51.442;6.996;2024-03-23T09:15:04;7.15;;;2.88;;
4569;SDS011;2297;51.442;6.996;2024-03-23T09:17:31;9.15;;;2.70;;
4569;SDS011;2297;51.442;6.996;2024-03-23T09:19:57;11.02;;;3.22;;
4569;SDS011;2297;51.442;6.996;2024-03-23T09:22:24;8.23;;;3.25;;
4569;SDS011;2297;51.442;6.996;2024-03-23T09:24:49;7.65;;;3.60;;
4569;SDS011;2297;51.442;6.996;2024-03-23T09:27:16;12.18;;;3.85;;
4569;SDS011;2297;51.442;6.996;2024-03-23T09:29:43;12.05;;;3.78;;
4569;SDS011;2297;51.442;6.996;2024-03-23T09:32:10;9.95;;;4.13;;
4569;SDS011;2297;51.442;6.996;2024-03-23T09:34:35;13.23;;;4.13;;
4569;SDS011;2297;51.442;6.996;2024-03-23T09:37:02;11.27;;;4.13;;
4569;SDS011;2297;51.442;6.996;2024-03-23T09:39:28;13.35;;;5.03;;
4569;SDS011;2297;51.442;6.996;2024-03-23T09:41:56;11.05;;;4.90;;
4569;SDS011;2297;51.442;6.996;2024-03-23T09:44:22;9.13;;;4.00;;
4569;SDS011;2297;51.442;6.996;2024-03-23T09:46:52;10.30;;;4.40;;
4569;SDS011;2297;51.442;6.996;2024-03-23T09:49:18;7.95;;;4.18;;
4569;SDS011;2297;51.442;6.996;2024-03-23T09:51:45;13.63;;;4.68;;
4569;SDS011;2297;51.442;6.996;2024-03-23T09:54:10;10.80;;;4.78;;
4569;SDS011;2297;51.442;6.996;2024-03-23T09:56:37;13.45;;;4.82;;
4569;SDS011;2297;51.442;6.996;2024-03-23T09:59:02;17.10;;;4.97;;
4569;SDS011;2297;51.442;6.996;2024-03-23T10:01:29;12.13;;;4.18;;
4569;SDS011;2297;51.442;6.996;2024-03-23T10:03:56;11.98;;;3.47;;
4569;SDS011;2297;51.442;6.996;2024-03-23T10:06:23;9.48;;;2.78;;
4569;SDS011;2297;51.442;6.996;2024-03-23T10:08:50;7.57;;;3.00;;
4569;SDS011;2297;51.442;6.996;2024-03-23T10:11:16;15.40;;;2.75;;
4569;SDS011;2297;51.442;6.996;2024-03-23T10:13:43;9.00;;;3.45;;
4569;SDS011;2297;51.442;6.996;2024-03-23T10:16:11;7.32;;;2.28;;
4569;SDS011;2297;51.442;6.996;2024-03-23T10:18:37;7.10;;;2.70;;
4569;SDS011;2297;51.442;6.996;2024-03-23T10:21:09;5.90;;;2.15;;
4569;SDS011;2297;51.442;6.996;2024-03-23T10:23:36;5.95;;;2.00;;
4569;SDS011;2297;51.442;6.996;2024-03-23T10:28:53;6.28;;;2.42;;
4569;SDS011;2297;51.442;6.996;2024-03-23T10:31:22;7.82;;;2.80;;
4569;SDS011;2297;51.442;6.996;2024-03-23T10:33:47;5.63;;;2.40;;
4569;SDS011;2297;51.442;6.996;2024-03-23T10:36:16;12.02;;;2.58;;
4569;SDS011;2297;51.442;6.996;2024-03-23T10:38:45;13.05;;;2.67;;
4569;SDS011;2297;51.442;6.996;2024-03-23T10:41:12;10.10;;;2.45;;
4569;SDS011;2297;51.442;6.996;2024-03-23T10:43:38;8.18;;;2.70;;
4569;SDS011;2297;51.442;6.996;2024-03-23T10:46:05;7.47;;;2.60;;
4569;SDS011;2297;51.442;6.996;2024-03-23T10:48:32;6.47;;;2.50;;
4569;SDS011;2297;51.442;6.996;2024-03-23T10:50:59;7.90;;;1.63;;
4569;SDS011;2297;51.442;6.996;2024-03-23T10:53:27;2.17;;;0.90;;
4569;SDS011;2297;51.442;6.996;2024-03-23T10:55:55;2.35;;;0.98;;
4569;SDS011;2297;51.442;6.996;2024-03-23T10:58:21;3.20;;;1.40;;
4569;SDS011;2297;51.442;6.996;2024-03-23T11:00:52;4.78;;;1.33;;
4569;SDS011;2297;51.442;6.996;2024-03-23T11:03:32;2.03;;;1.10;;
4569;SDS011;2297;51.442;6.996;2024-03-23T11:06:00;3.45;;;1.20;;
4569;SDS011;2297;51.442;6.996;2024-03-23T11:08:34;2.20;;;1.00;;
4569;SDS011;2297;51.442;6.996;2024-03-23T11:11:17;5.18;;;1.02;;
4569;SDS011;2297;51.442;6.996;2024-03-23T11:13:43;2.60;;;1.15;;
4569;SDS011;2297;51.442;6.996;2024-03-23T11:16:14;1.27;;;1.10;;
4569;SDS011;2297;51.442;6.996;2024-03-23T11:18:40;3.85;;;1.77;;
4569;SDS011;2297;51.442;6.996;2024-03-23T11:21:08;4.70;;;1.58;;
4569;SDS011;2297;51.442;6.996;2024-03-23T11:23:36;3.20;;;1.90;;
4569;SDS011;2297;51.442;6.996;2024-03-23T11:26:06;4.50;;;1.63;;
4569;SDS011;2297;51.442;6.996;2024-03-23T11:28:32;4.88;;;1.80;;
4569;SDS011;2297;51.442;6.996;2024-03-23T11:30:59;7.32;;;3.20;;
4569;SDS011;2297;51.442;6.996;2024-03-23T11:33:24;3.85;;;1.90;;
4569;SDS011;2297;51.442;6.996;2024-03-23T11:35:51;7.20;;;1.92;;
4569;SDS011;2297;51.442;6.996;2024-03-23T11:38:17;4.78;;;2.17;;
4569;SDS011;2297;51.442;6.996;2024-03-23T11:40:46;9.25;;;2.78;;
4569;SDS011;2297;51.442;6.996;2024-03-23T11:43:13;4.88;;;2.58;;
4569;SDS011;2297;51.442;6.996;2024-03-23T11:45:42;7.05;;;2.90;;
4569;SDS011;2297;51.442;6.996;2024-03-23T11:48:09;8.70;;;2.90;;
4569;SDS011;2297;51.442;6.996;2024-03-23T11:50:37;7.97;;;2.80;;
4569;SDS011;2297;51.442;6.996;2024-03-23T11:53:12;7.97;;;2.72;;
4569;SDS011;2297;51.442;6.996;2024-03-23T11:55:47;6.65;;;2.58;;
4569;SDS011;2297;51.442;6.996;2024-03-23T11:58:14;6.88;;;2.78;;
4569;SDS011;2297;51.442;6.996;2024-03-23T12:00:42;7.10;;;2.78;;
4569;SDS011;2297;51.442;6.996;2024-03-23T12:03:14;6.60;;;2.75;;
4569;SDS011;2297;51.442;6.996;2024-03-23T12:05:42;3.33;;;1.75;;
4569;SDS011;2297;51.442;6.996;2024-03-23T12:08:17;5.03;;;2.03;;
4569;SDS011;2297;51.442;6.996;2024-03-23T12:10:50;6.95;;;2.17;;
4569;SDS011;2297;51.442;6.996;2024-03-23T12:13:21;5.25;;;1.52;;
4569;SDS011;2297;51.442;6.996;2024-03-23T12:15:49;5.13;;;1.98;;
4569;SDS011;2297;51.442;6.996;2024-03-23T12:18:16;3.80;;;1.63;;
4569;SDS011;2297;51.442;6.996;2024-03-23T12:20:43;3.17;;;1.85;;
4569;SDS011;2297;51.442;6.996;2024-03-23T12:23:09;7.57;;;2.10;;
4569;SDS011;2297;51.442;6.996;2024-03-23T12:25:36;5.88;;;1.73;;
4569;SDS011;2297;51.442;6.996;2024-03-23T12:28:04;3.00;;;1.80;;
4569;SDS011;2297;51.442;6.996;2024-03-23T12:30:33;4.75;;;2.03;;
4569;SDS011;2297;51.442;6.996;2024-03-23T12:33:00;3.65;;;1.92;;
4569;SDS011;2297;51.442;6.996;2024-03-23T12:35:26;5.90;;;2.22;;
4569;SDS011;2297;51.442;6.996;2024-03-23T12:37:52;3.83;;;2.20;;
4569;SDS011;2297;51.442;6.996;2024-03-23T12:40:18;5.45;;;2.47;;
4569;SDS011;2297;51.442;6.996;2024-03-23T12:42:44;4.90;;;2.15;;
4569;SDS011;2297;51.442;6.996;2024-03-23T12:45:12;4.03;;;2.28;;
4569;SDS011;2297;51.442;6.996;2024-03-23T12:47:38;6.55;;;2.33;;
4569;SDS011;2297;51.442;6.996;2024-03-23T12:50:05;6.38;;;2.25;;
4569;SDS011;2297;51.442;6.996;2024-03-23T12:52:31;4.60;;;2.25;;
4569;SDS011;2297;51.442;6.996;2024-03-23T12:54:57;7.25;;;2.30;;
4569;SDS011;2297;51.442;6.996;2024-03-23T12:57:23;8.30;;;2.50;;
4569;SDS011;2297;51.442;6.996;2024-03-23T12:59:50;7.80;;;1.95;;
4569;SDS011;2297;51.442;6.996;2024-03-23T13:02:18;7.53;;;2.20;;
4569;SDS011;2297;51.442;6.996;2024-03-23T13:04:46;7.82;;;2.65;;
4569;SDS011;2297;51.442;6.996;2024-03-23T13:07:14;6.80;;;2.42;;
4569;SDS011;2297;51.442;6.996;2024-03-23T13:09:41;5.32;;;2.33;;
4569;SDS011;2297;51.442;6.996;2024-03-23T13:12:07;6.05;;;2.35;;
4569;SDS011;2297;51.442;6.996;2024-03-23T13:14:34;5.18;;;2.13;;
4569;SDS011;2297;51.442;6.996;2024-03-23T13:17:01;4.25;;;2.10;;
4569;SDS011;2297;51.442;6.996;2024-03-23T13:19:29;4.22;;;1.95;;
4569;SDS011;2297;51.442;6.996;2024-03-23T13:21:56;3.63;;;1.38;;
4569;SDS011;2297;51.442;6.996;2024-03-23T13:24:22;3.95;;;1.30;;
4569;SDS011;2297;51.442;6.996;2024-03-23T13:26:49;11.80;;;2.00;;
4569;SDS011;2297;51.442;6.996;2024-03-23T13:29:15;5.60;;;1.77;;
4569;SDS011;2297;51.442;6.996;2024-03-23T13:31:42;4.35;;;1.83;;
4569;SDS011;2297;51.442;6.996;2024-03-23T13:34:08;8.95;;;2.67;;
4569;SDS011;2297;51.442;6.996;2024-03-23T13:36:36;4.82;;;1.90;;
4569;SDS011;2297;51.442;6.996;2024-03-23T13:39:01;7.82;;;2.30;;
4569;SDS011;2297;51.442;6.996;2024-03-23T13:41:31;3.92;;;2.20;;
4569;SDS011;2297;51.442;6.996;2024-03-23T13:43:57;4.75;;;2.20;;
4569;SDS011;2297;51.442;6.996;2024-03-23T13:46:23;5.05;;;2.13;;
4569;SDS011;2297;51.442;6.996;2024-03-23T13:48:49;7.53;;;2.17;;
4569;SDS011;2297;51.442;6.996;2024-03-23T13:51:16;3.88;;;1.42;;
4569;SDS011;2297;51.442;6.996;2024-03-23T13:53:50;3.88;;;1.70;;
4569;SDS011;2297;51.442;6.996;2024-03-23T13:56:17;4.00;;;2.03;;
4569;SDS011;2297;51.442;6.996;2024-03-23T13:58:43;4.53;;;1.40;;
4569;SDS011;2297;51.442;6.996;2024-03-23T14:01:11;4.85;;;1.65;;
4569;SDS011;2297;51.442;6.996;2024-03-23T14:03:38;6.15;;;1.30;;
4569;SDS011;2297;51.442;6.996;2024-03-23T14:06:04;4.35;;;1.80;;
4569;SDS011;2297;51.442;6.996;2024-03-23T14:08:32;3.95;;;1.30;;
4569;SDS011;2297;51.442;6.996;2024-03-23T14:11:02;4.53;;;1.33;;
4569;SDS011;2297;51.442;6.996;2024-03-23T14:13:30;5.85;;;1.45;;
4569;SDS011;2297;51.442;6.996;2024-03-23T14:15:56;4.68;;;0.98;;
4569;SDS011;2297;51.442;6.996;2024-03-23T14:18:22;3.70;;;1.45;;
4569;SDS011;2297;51.442;6.996;2024-03-23T14:20:48;4.40;;;1.20;;
4569;SDS011;2297;51.442;6.996;2024-03-23T14:23:15;2.97;;;1.58;;
4569;SDS011;2297;51.442;6.996;2024-03-23T14:25:40;2.22;;;1.35;;
4569;SDS011;2297;51.442;6.996;2024-03-23T14:28:08;3.42;;;1.33;;
4569;SDS011;2297;51.442;6.996;2024-03-23T14:30:39;2.90;;;1.17;;
4569;SDS011;2297;51.442;6.996;2024-03-23T14:33:06;2.72;;;1.30;;
4569;SDS011;2297;51.442;6.996;2024-03-23T14:35:32;3.55;;;1.08;;
4569;SDS011;2297;51.442;6.996;2024-03-23T14:37:58;2.63;;;1.33;;
4569;SDS011;2297;51.442;6.996;2024-03-23T14:40:24;2.88;;;1.05;;
4569;SDS011;2297;51.442;6.996;2024-03-23T14:42:52;2.97;;;1.33;;
4569;SDS011;2297;51.442;6.996;2024-03-23T14:45:20;2.78;;;1.42;;
4569;SDS011;2297;51.442;6.996;2024-03-23T14:47:46;3.08;;;1.48;;
4569;SDS011;2297;51.442;6.996;2024-03-23T14:50:12;4.80;;;1.33;;
4569;SDS011;2297;51.442;6.996;2024-03-23T14:52:40;4.10;;;1.40;;
4569;SDS011;2297;51.442;6.996;2024-03-23T14:55:06;6.88;;;1.33;;
4569;SDS011;2297;51.442;6.996;2024-03-23T14:57:34;3.58;;;1.52;;
4569;SDS011;2297;51.442;6.996;2024-03-23T15:00:00;3.95;;;1.55;;
4569;SDS011;2297;51.442;6.996;2024-03-23T15:02:28;5.18;;;1.17;;
4569;SDS011;2297;51.442;6.996;2024-03-23T15:04:55;6.82;;;1.92;;
4569;SDS011;2297;51.442;6.996;2024-03-23T15:07:21;2.40;;;1.45;;
4569;SDS011;2297;51.442;6.996;2024-03-23T15:09:47;4.63;;;1.65;;
4569;SDS011;2297;51.442;6.996;2024-03-23T15:12:14;3.83;;;1.50;;
4569;SDS011;2297;51.442;6.996;2024-03-23T15:14:39;3.03;;;1.63;;
4569;SDS011;2297;51.442;6.996;2024-03-23T15:17:06;5.28;;;1.75;;
4569;SDS011;2297;51.442;6.996;2024-03-23T15:19:35;5.25;;;1.55;;
4569;SDS011;2297;51.442;6.996;2024-03-23T15:22:01;8.00;;;1.75;;
4569;SDS011;2297;51.442;6.996;2024-03-23T15:24:27;5.85;;;1.67;;
4569;SDS011;2297;51.442;6.996;2024-03-23T15:26:53;4.07;;;1.50;;
4569;SDS011;2297;51.442;6.996;2024-03-23T15:29:20;5.30;;;1.95;;
4569;SDS011;2297;51.442;6.996;2024-03-23T15:31:48;3.55;;;1.48;;
4569;SDS011;2297;51.442;6.996;2024-03-23T15:34:17;3.38;;;1.83;;
4569;SDS011;2297;51.442;6.996;2024-03-23T15:36:45;3.70;;;1.70;;
4569;SDS011;2297;51.442;6.996;2024-03-23T15:39:11;3.50;;;1.77;;
4569;SDS011;2297;51.442;6.996;2024-03-23T15:41:38;5.95;;;2.53;;
4569;SDS011;2297;51.442;6.996;2024-03-23T15:44:04;4.72;;;1.90;;
4569;SDS011;2297;51.442;6.996;2024-03-23T15:46:31;3.13;;;1.58;;
4569;SDS011;2297;51.442;6.996;2024-03-23T15:48:56;3.08;;;1.42;;
4569;SDS011;2297;51.442;6.996;2024-03-23T15:51:23;6.78;;;1.55;;
4569;SDS011;2297;51.442;6.996;2024-03-23T15:53:52;4.30;;;1.60;;
4569;SDS011;2297;51.442;6.996;2024-03-23T15:56:22;6.65;;;1.50;;
4569;SDS011;2297;51.442;6.996;2024-03-23T15:58:47;7.05;;;2.08;;
4569;SDS011;2297;51.442;6.996;2024-03-23T16:01:14;4.18;;;1.23;;
4569;SDS011;2297;51.442;6.996;2024-03-23T16:03:40;2.40;;;1.30;;
4569;SDS011;2297;51.442;6.996;2024-03-23T16:06:07;3.97;;;1.50;;